sensor_id;sensor_type;location;lat;lon;timestamp;pressure;altitude;pressure_sealevel;temperature;humidity
33191;BME280;19554;42.652;23.364;2023-07-31T00:00:32;94260.69;;;24.78;53.85
33191;BME280;19554;42.652;23.364;2023-07-31T00:02:58;94236.50;;;24.59;54.33
33191;BME280;19554;42.652;23.364;2023-07-31T00:05:23;94248.59;;;24.72;54.25
33191;BME280;19554;42.652;23.364;2023-07-31T00:07:48;94268.88;;;24.78;53.56
33191;BME280;19554;42.652;23.364;2023-07-31T00:10:14;94271.25;;;24.83;53.89
33191;BME280;19554;42.652;23.364;2023-07-31T00:12:42;94275.16;;;24.79;53.74
33191;BME280;19554;42.652;23.364;2023-07-31T00:15:08;94275.50;;;24.77;53.89
33191;BME280;19554;42.652;23.364;2023-07-31T00:17:33;94275.50;;;24.70;53.73
33191;BME280;19554;42.652;23.364;2023-07-31T00:19:59;94275.09;;;24.65;53.90
33191;BME280;19554;42.652;23.364;2023-07-31T00:22:24;94266.50;;;24.55;54.29
33191;BME280;19554;42.652;23.364;2023-07-31T00:24:49;94271.91;;;24.45;54.85
33191;BME280;19554;42.652;23.364;2023-07-31T00:27:15;94265.53;;;24.23;55.12
33191;BME280;19554;42.652;23.364;2023-07-31T00:29:40;94262.44;;;24.17;55.50
33191;BME280;19554;42.652;23.364;2023-07-31T00:32:06;94270.97;;;24.19;56.02
33191;BME280;19554;42.652;23.364;2023-07-31T00:34:32;94246.44;;;24.19;55.38
33191;BME280;19554;42.652;23.364;2023-07-31T00:36:57;94247.19;;;24.16;56.27
33191;BME280;19554;42.652;23.364;2023-07-31T00:39:22;94246.38;;;24.05;57.08
33191;BME280;19554;42.652;23.364;2023-07-31T00:41:48;94253.00;;;24.04;57.61
33191;BME280;19554;42.652;23.364;2023-07-31T00:44:13;94251.03;;;24.01;57.75
33191;BME280;19554;42.652;23.364;2023-07-31T00:46:39;94249.88;;;24.02;58.38
33191;BME280;19554;42.652;23.364;2023-07-31T00:49:05;94245.22;;;24.06;57.82
33191;BME280;19554;42.652;23.364;2023-07-31T00:51:30;94248.34;;;24.08;58.09
33191;BME280;19554;42.652;23.364;2023-07-31T00:53:56;94185.78;;;23.60;58.30
33191;BME280;19554;42.652;23.364;2023-07-31T00:56:22;94255.22;;;23.80;59.02
33191;BME280;19554;42.652;23.364;2023-07-31T00:58:48;94169.84;;;23.07;59.61
33191;BME280;19554;42.652;23.364;2023-07-31T01:01:14;94240.47;;;23.33;60.31
33191;BME280;19554;42.652;23.364;2023-07-31T01:03:39;94251.34;;;23.33;60.90
33191;BME280;19554;42.652;23.364;2023-07-31T01:06:18;94246.31;;;23.35;61.26
33191;BME280;19554;42.652;23.364;2023-07-31T01:11:30;94174.19;;;23.11;60.33
33191;BME280;19554;42.652;23.364;2023-07-31T01:13:55;94245.75;;;23.67;60.38
33191;BME280;19554;42.652;23.364;2023-07-31T01:16:22;94235.22;;;23.65;60.27
33191;BME280;19554;42.652;23.364;2023-07-31T01:18:47;94238.69;;;23.59;60.42
33191;BME280;19554;42.652;23.364;2023-07-31T01:26:38;94234.19;;;23.84;59.87
33191;BME280;19554;42.652;23.364;2023-07-31T01:29:10;94175.56;;;23.42;59.79
33191;BME280;19554;42.652;23.364;2023-07-31T01:31:40;94221.56;;;23.62;60.32
33191;BME280;19554;42.652;23.364;2023-07-31T01:34:08;94229.34;;;23.60;60.56
33191;BME280;19554;42.652;23.364;2023-07-31T01:36:35;94223.22;;;23.70;60.48
33191;BME280;19554;42.652;23.364;2023-07-31T01:39:01;94222.50;;;23.77;60.24
33191;BME280;19554;42.652;23.364;2023-07-31T01:41:27;94207.53;;;23.53;60.78
33191;BME280;19554;42.652;23.364;2023-07-31T01:43:53;94219.25;;;23.60;61.09
33191;BME280;19554;42.652;23.364;2023-07-31T01:46:18;94227.03;;;23.65;60.84
33191;BME280;19554;42.652;23.364;2023-07-31T01:48:44;94221.59;;;23.65;61.14
33191;BME280;19554;42.652;23.364;2023-07-31T01:51:09;94198.56;;;23.49;61.14
33191;BME280;19554;42.652;23.364;2023-07-31T01:53:34;94203.59;;;23.50;61.67
33191;BME280;19554;42.652;23.364;2023-07-31T01:56:00;94161.38;;;23.15;61.72
33191;BME280;19554;42.652;23.364;2023-07-31T01:58:25;94229.34;;;23.60;61.60
33191;BME280;19554;42.652;23.364;2023-07-31T02:00:51;94226.13;;;23.44;62.11
33191;BME280;19554;42.652;23.364;2023-07-31T02:03:16;94201.88;;;23.24;62.14
33191;BME280;19554;42.652;23.364;2023-07-31T02:05:46;94225.22;;;23.25;63.35
33191;BME280;19554;42.652;23.364;2023-07-31T02:08:11;94232.97;;;23.23;63.52
33191;BME280;19554;42.652;23.364;2023-07-31T02:10:37;94230.66;;;23.22;63.46
33191;BME280;19554;42.652;23.364;2023-07-31T02:13:02;94226.63;;;23.05;64.03
33191;BME280;19554;42.652;23.364;2023-07-31T02:15:29;94247.50;;;22.93;64.58
33191;BME280;19554;42.652;23.364;2023-07-31T02:17:55;94250.28;;;23.01;64.63
33191;BME280;19554;42.652;23.364;2023-07-31T02:20:20;94239.06;;;23.06;64.46
33191;BME280;19554;42.652;23.364;2023-07-31T02:22:45;94245.31;;;23.10;64.36
33191;BME280;19554;42.652;23.364;2023-07-31T02:25:11;94198.00;;;22.81;64.03
33191;BME280;19554;42.652;23.364;2023-07-31T02:27:36;94257.44;;;23.16;64.22
33191;BME280;19554;42.652;23.364;2023-07-31T02:30:02;94247.66;;;23.08;64.44
33191;BME280;19554;42.652;23.364;2023-07-31T02:32:27;94247.75;;;23.18;64.14
33191;BME280;19554;42.652;23.364;2023-07-31T02:34:53;94250.88;;;23.24;64.33
33191;BME280;19554;42.652;23.364;2023-07-31T02:37:18;94239.22;;;23.24;63.84
33191;BME280;19554;42.652;23.364;2023-07-31T02:39:43;94225.97;;;23.22;63.58
33191;BME280;19554;42.652;23.364;2023-07-31T02:42:09;94248.69;;;23.40;63.47
33191;BME280;19554;42.652;23.364;2023-07-31T02:44:34;94222.16;;;23.30;63.54
33191;BME280;19554;42.652;23.364;2023-07-31T02:46:59;94244.00;;;23.41;63.62
33191;BME280;19554;42.652;23.364;2023-07-31T02:49:25;94247.81;;;23.29;63.92
33191;BME280;19554;42.652;23.364;2023-07-31T02:51:50;94251.75;;;23.35;63.87
33191;BME280;19554;42.652;23.364;2023-07-31T02:54:16;94255.31;;;23.43;63.20
33191;BME280;19554;42.652;23.364;2023-07-31T02:56:41;94165.84;;;22.93;63.19
33191;BME280;19554;42.652;23.364;2023-07-31T02:59:06;94254.91;;;23.41;63.41
33191;BME280;19554;42.652;23.364;2023-07-31T03:01:32;94257.25;;;23.42;63.13
33191;BME280;19554;42.652;23.364;2023-07-31T03:03:57;94251.72;;;23.28;63.63
33191;BME280;19554;42.652;23.364;2023-07-31T03:06:22;94261.06;;;23.34;63.40
33191;BME280;19554;42.652;23.364;2023-07-31T03:08:48;94267.22;;;23.24;63.71
33191;BME280;19554;42.652;23.364;2023-07-31T03:11:13;94249.94;;;23.06;64.10
33191;BME280;19554;42.652;23.364;2023-07-31T03:13:39;94270.19;;;23.05;64.24
33191;BME280;19554;42.652;23.364;2023-07-31T03:16:04;94272.97;;;23.12;64.05
33191;BME280;19554;42.652;23.364;2023-07-31T03:18:29;94279.16;;;23.09;64.55
33191;BME280;19554;42.652;23.364;2023-07-31T03:20:55;94269.44;;;23.08;64.22
33191;BME280;19554;42.652;23.364;2023-07-31T03:23:20;94276.47;;;23.12;64.23
33191;BME280;19554;42.652;23.364;2023-07-31T03:25:59;94270.91;;;23.02;64.40
33191;BME280;19554;42.652;23.364;2023-07-31T03:28:24;94273.22;;;23.00;64.76
33191;BME280;19554;42.652;23.364;2023-07-31T03:30:51;94263.50;;;22.99;64.51
33191;BME280;19554;42.652;23.364;2023-07-31T03:33:16;94279.63;;;23.18;64.46
33191;BME280;19554;42.652;23.364;2023-07-31T03:35:41;94276.13;;;23.21;64.46
33191;BME280;19554;42.652;23.364;2023-07-31T03:38:07;94284.25;;;23.14;64.32
33191;BME280;19554;42.652;23.364;2023-07-31T03:40:32;94269.81;;;23.10;64.36
33191;BME280;19554;42.652;23.364;2023-07-31T03:42:58;94274.88;;;23.08;64.32
33191;BME280;19554;42.652;23.364;2023-07-31T03:45:23;94281.19;;;23.19;64.26
33191;BME280;19554;42.652;23.364;2023-07-31T03:47:48;94284.31;;;23.21;64.28
33191;BME280;19554;42.652;23.364;2023-07-31T03:50:14;94263.22;;;23.11;64.02
33191;BME280;19554;42.652;23.364;2023-07-31T03:52:41;94282.03;;;23.27;63.85
33191;BME280;19554;42.652;23.364;2023-07-31T03:55:06;94271.84;;;23.20;63.37
33191;BME280;19554;42.652;23.364;2023-07-31T03:57:32;94294.50;;;23.31;63.45
33191;BME280;19554;42.652;23.364;2023-07-31T03:59:58;94293.63;;;23.20;63.87
33191;BME280;19554;42.652;23.364;2023-07-31T04:02:23;94299.84;;;23.17;63.72
33191;BME280;19554;42.652;23.364;2023-07-31T04:04:49;94295.28;;;23.28;63.31
33191;BME280;19554;42.652;23.364;2023-07-31T04:07:14;94306.19;;;23.28;63.36
33191;BME280;19554;42.652;23.364;2023-07-31T04:09:39;94300.72;;;23.28;63.35
33191;BME280;19554;42.652;23.364;2023-07-31T04:12:05;94236.81;;;22.74;63.52
33191;BME280;19554;42.652;23.364;2023-07-31T04:14:31;94222.25;;;22.59;63.58
33191;BME280;19554;42.652;23.364;2023-07-31T04:16:56;94309.94;;;23.16;64.03
33191;BME280;19554;42.652;23.364;2023-07-31T04:19:21;94300.94;;;23.09;63.71
33191;BME280;19554;42.652;23.364;2023-07-31T04:21:47;94310.09;;;22.93;64.45
33191;BME280;19554;42.652;23.364;2023-07-31T04:24:12;94317.78;;;22.84;64.77
33191;BME280;19554;42.652;23.364;2023-07-31T04:26:37;94298.63;;;22.74;65.02
33191;BME280;19554;42.652;23.364;2023-07-31T04:29:03;94315.78;;;22.81;64.93
33191;BME280;19554;42.652;23.364;2023-07-31T04:31:28;94314.31;;;22.87;64.75
33191;BME280;19554;42.652;23.364;2023-07-31T04:33:53;94292.38;;;22.73;64.85
33191;BME280;19554;42.652;23.364;2023-07-31T04:36:19;94255.78;;;22.67;64.29
33191;BME280;19554;42.652;23.364;2023-07-31T04:38:44;94316.16;;;23.17;63.51
33191;BME280;19554;42.652;23.364;2023-07-31T04:41:10;94308.84;;;23.25;63.09
33191;BME280;19554;42.652;23.364;2023-07-31T04:43:35;94306.03;;;23.14;63.09
33191;BME280;19554;42.652;23.364;2023-07-31T04:46:00;94279.53;;;23.11;62.78
33191;BME280;19554;42.652;23.364;2023-07-31T04:48:26;94293.31;;;23.25;62.09
33191;BME280;19554;42.652;23.364;2023-07-31T04:50:51;94307.78;;;23.36;61.98
33191;BME280;19554;42.652;23.364;2023-07-31T04:53:16;94311.63;;;23.28;62.30
33191;BME280;19554;42.652;23.364;2023-07-31T04:55:42;94319.50;;;23.40;62.01
33191;BME280;19554;42.652;23.364;2023-07-31T04:58:07;94307.84;;;23.44;61.46
33191;BME280;19554;42.652;23.364;2023-07-31T05:00:33;94260.84;;;23.06;61.46
33191;BME280;19554;42.652;23.364;2023-07-31T05:02:58;94304.59;;;23.27;61.80
33191;BME280;19554;42.652;23.364;2023-07-31T05:05:23;94305.34;;;23.24;61.95
33191;BME280;19554;42.652;23.364;2023-07-31T05:07:49;94305.41;;;23.31;61.70
33191;BME280;19554;42.652;23.364;2023-07-31T05:10:14;94309.88;;;23.54;61.44
33191;BME280;19554;42.652;23.364;2023-07-31T05:12:40;94299.63;;;23.84;60.46
33191;BME280;19554;42.652;23.364;2023-07-31T05:15:05;94297.50;;;24.22;59.13
33191;BME280;19554;42.652;23.364;2023-07-31T05:17:31;94299.50;;;24.32;58.50
33191;BME280;19554;42.652;23.364;2023-07-31T05:19:57;94297.94;;;24.28;58.28
33191;BME280;19554;42.652;23.364;2023-07-31T05:22:22;94297.44;;;24.08;59.13
33191;BME280;19554;42.652;23.364;2023-07-31T05:24:47;94298.19;;;24.05;59.17
33191;BME280;19554;42.652;23.364;2023-07-31T05:27:13;94281.81;;;24.05;59.13
33191;BME280;19554;42.652;23.364;2023-07-31T05:29:40;94283.16;;;24.40;58.97
33191;BME280;19554;42.652;23.364;2023-07-31T05:32:06;94285.25;;;24.78;57.17
33191;BME280;19554;42.652;23.364;2023-07-31T05:34:31;94291.16;;;24.95;56.52
33191;BME280;19554;42.652;23.364;2023-07-31T05:36:57;94259.94;;;24.85;56.03
33191;BME280;19554;42.652;23.364;2023-07-31T05:39:22;94295.88;;;25.12;55.61
33191;BME280;19554;42.652;23.364;2023-07-31T05:41:48;94299.38;;;25.09;55.35
33191;BME280;19554;42.652;23.364;2023-07-31T05:44:13;94292.34;;;25.08;54.78
33191;BME280;19554;42.652;23.364;2023-07-31T05:46:38;94296.72;;;25.31;54.08
33191;BME280;19554;42.652;23.364;2023-07-31T05:49:04;94293.97;;;25.59;53.45
33191;BME280;19554;42.652;23.364;2023-07-31T05:51:29;94304.13;;;25.76;52.30
33191;BME280;19554;42.652;23.364;2023-07-31T05:53:54;94300.22;;;25.99;51.63
33191;BME280;19554;42.652;23.364;2023-07-31T05:56:20;94277.16;;;25.96;50.89
33191;BME280;19554;42.652;23.364;2023-07-31T05:58:45;94287.72;;;25.91;50.05
33191;BME280;19554;42.652;23.364;2023-07-31T06:01:10;94300.22;;;25.99;50.47
33191;BME280;19554;42.652;23.364;2023-07-31T06:03:36;94312.72;;;26.00;50.12
33191;BME280;19554;42.652;23.364;2023-07-31T06:06:01;94317.00;;;25.94;50.58
33191;BME280;19554;42.652;23.364;2023-07-31T06:08:26;94313.09;;;25.73;50.36
33191;BME280;19554;42.652;23.364;2023-07-31T06:10:52;94315.84;;;25.45;51.29
33191;BME280;19554;42.652;23.364;2023-07-31T06:13:17;94294.75;;;25.31;51.15
33191;BME280;19554;42.652;23.364;2023-07-31T06:15:43;94306.47;;;25.39;50.89
33191;BME280;19554;42.652;23.364;2023-07-31T06:18:08;94267.03;;;25.11;50.39
33191;BME280;19554;42.652;23.364;2023-07-31T06:20:34;94310.78;;;25.72;49.57
33191;BME280;19554;42.652;23.364;2023-07-31T06:23:00;94261.56;;;25.65;48.89
33191;BME280;19554;42.652;23.364;2023-07-31T06:25:25;94301.75;;;26.14;47.20
33191;BME280;19554;42.652;23.364;2023-07-31T06:27:51;94299.75;;;26.29;46.69
33191;BME280;19554;42.652;23.364;2023-07-31T06:30:16;94290.78;;;26.18;46.15
33191;BME280;19554;42.652;23.364;2023-07-31T06:32:42;94253.31;;;26.04;46.07
33191;BME280;19554;42.652;23.364;2023-07-31T06:35:08;94304.69;;;26.77;45.49
33191;BME280;19554;42.652;23.364;2023-07-31T06:37:33;94271.03;;;26.73;45.01
33191;BME280;19554;42.652;23.364;2023-07-31T06:39:58;94291.38;;;26.76;44.91
33191;BME280;19554;42.652;23.364;2023-07-31T06:42:24;94293.81;;;26.45;45.72
33191;BME280;19554;42.652;23.364;2023-07-31T06:44:49;94300.91;;;26.32;45.80
33191;BME280;19554;42.652;23.364;2023-07-31T06:47:15;94302.47;;;26.36;46.35
33191;BME280;19554;42.652;23.364;2023-07-31T06:49:40;94307.09;;;26.64;45.82
33191;BME280;19554;42.652;23.364;2023-07-31T06:52:06;94310.97;;;26.70;45.33
33191;BME280;19554;42.652;23.364;2023-07-31T06:54:31;94318.78;;;26.68;45.83
33191;BME280;19554;42.652;23.364;2023-07-31T06:56:57;94317.63;;;26.66;45.80
33191;BME280;19554;42.652;23.364;2023-07-31T06:59:22;94310.66;;;26.54;45.95
33191;BME280;19554;42.652;23.364;2023-07-31T07:01:47;94318.81;;;26.65;45.88
33191;BME280;19554;42.652;23.364;2023-07-31T07:04:13;94317.22;;;26.75;45.31
33191;BME280;19554;42.652;23.364;2023-07-31T07:06:39;94321.13;;;26.74;45.94
33191;BME280;19554;42.652;23.364;2023-07-31T07:09:04;94303.47;;;26.82;45.37
33191;BME280;19554;42.652;23.364;2023-07-31T07:11:30;94310.88;;;26.92;44.38
33191;BME280;19554;42.652;23.364;2023-07-31T07:13:55;94316.66;;;27.08;44.10
33191;BME280;19554;42.652;23.364;2023-07-31T07:16:20;94228.91;;;26.45;43.90
33191;BME280;19554;42.652;23.364;2023-07-31T07:18:46;94318.59;;;27.04;43.69
33191;BME280;19554;42.652;23.364;2023-07-31T07:21:11;94318.59;;;27.04;44.20
33191;BME280;19554;42.652;23.364;2023-07-31T07:23:42;94317.75;;;27.25;43.58
33191;BME280;19554;42.652;23.364;2023-07-31T07:26:08;94307.22;;;27.16;43.36
33191;BME280;19554;42.652;23.364;2023-07-31T07:28:33;94316.78;;;27.53;42.71
33191;BME280;19554;42.652;23.364;2023-07-31T07:30:58;94322.06;;;27.75;42.22
33191;BME280;19554;42.652;23.364;2023-07-31T07:33:24;94322.72;;;27.93;41.13
33191;BME280;19554;42.652;23.364;2023-07-31T07:35:49;94273.66;;;27.57;41.15
33191;BME280;19554;42.652;23.364;2023-07-31T07:38:15;94314.25;;;27.77;41.21
33191;BME280;19554;42.652;23.364;2023-07-31T07:40:41;94306.84;;;28.15;40.88
33191;BME280;19554;42.652;23.364;2023-07-31T07:43:06;94313.03;;;28.61;39.96
33191;BME280;19554;42.652;23.364;2023-07-31T07:45:32;94281.22;;;28.29;40.09
33191;BME280;19554;42.652;23.364;2023-07-31T07:47:57;94321.97;;;27.89;41.01
33191;BME280;19554;42.652;23.364;2023-07-31T07:50:24;94307.66;;;27.67;41.59
33191;BME280;19554;42.652;23.364;2023-07-31T07:52:49;94330.38;;;27.64;42.08
33191;BME280;19554;42.652;23.364;2023-07-31T07:55:15;94315.63;;;27.99;41.04
33191;BME280;19554;42.652;23.364;2023-07-31T07:57:40;94337.91;;;28.46;40.22
33191;BME280;19554;42.652;23.364;2023-07-31T08:00:06;94328.47;;;28.47;39.96
33191;BME280;19554;42.652;23.364;2023-07-31T08:02:31;94327.41;;;27.96;39.96
33191;BME280;19554;42.652;23.364;2023-07-31T08:04:57;94300.19;;;27.68;40.45
33191;BME280;19554;42.652;23.364;2023-07-31T08:07:22;94321.31;;;27.78;39.70
33191;BME280;19554;42.652;23.364;2023-07-31T08:09:48;94323.63;;;27.79;39.94
33191;BME280;19554;42.652;23.364;2023-07-31T08:12:13;94334.63;;;27.76;39.87
33191;BME280;19554;42.652;23.364;2023-07-31T08:14:39;94326.34;;;27.86;40.22
33191;BME280;19554;42.652;23.364;2023-07-31T08:17:04;94323.41;;;28.04;39.28
33191;BME280;19554;42.652;23.364;2023-07-31T08:19:29;94331.69;;;28.42;39.30
33191;BME280;19554;42.652;23.364;2023-07-31T08:21:55;94330.94;;;28.38;39.20
33191;BME280;19554;42.652;23.364;2023-07-31T08:24:20;94323.84;;;28.41;39.59
33191;BME280;19554;42.652;23.364;2023-07-31T08:26:46;94323.16;;;28.29;39.37
33191;BME280;19554;42.652;23.364;2023-07-31T08:29:12;94325.44;;;28.42;39.23
33191;BME280;19554;42.652;23.364;2023-07-31T08:31:37;94324.66;;;28.34;39.11
33191;BME280;19554;42.652;23.364;2023-07-31T08:34:02;94317.84;;;28.11;39.37
33191;BME280;19554;42.652;23.364;2023-07-31T08:36:28;94327.28;;;28.10;39.71
33191;BME280;19554;42.652;23.364;2023-07-31T08:38:53;94330.75;;;28.56;39.17
33191;BME280;19554;42.652;23.364;2023-07-31T08:41:19;94325.94;;;28.64;37.84
33191;BME280;19554;42.652;23.364;2023-07-31T08:43:46;94324.28;;;28.73;37.76
33191;BME280;19554;42.652;23.364;2023-07-31T08:46:11;94323.31;;;28.87;37.17
33191;BME280;19554;42.652;23.364;2023-07-31T08:48:41;94327.38;;;29.10;36.94
33191;BME280;19554;42.652;23.364;2023-07-31T08:51:07;94318.09;;;28.96;36.70
33191;BME280;19554;42.652;23.364;2023-07-31T08:53:33;94313.06;;;28.91;37.01
33191;BME280;19554;42.652;23.364;2023-07-31T08:55:59;94296.72;;;28.80;36.34
33191;BME280;19554;42.652;23.364;2023-07-31T08:58:25;94324.72;;;28.99;36.57
33191;BME280;19554;42.652;23.364;2023-07-31T09:00:54;94318.84;;;29.00;36.51
33191;BME280;19554;42.652;23.364;2023-07-31T09:03:23;94329.28;;;29.13;36.52
33191;BME280;19554;42.652;23.364;2023-07-31T09:05:49;94317.31;;;28.99;36.73
33191;BME280;19554;42.652;23.364;2023-07-31T09:08:18;94320.13;;;28.89;37.23
33191;BME280;19554;42.652;23.364;2023-07-31T09:10:45;94322.97;;;28.81;37.06
33191;BME280;19554;42.652;23.364;2023-07-31T09:13:12;94309.94;;;28.89;37.06
33191;BME280;19554;42.652;23.364;2023-07-31T09:15:38;94300.81;;;28.99;36.89
33191;BME280;19554;42.652;23.364;2023-07-31T09:18:05;94301.94;;;29.02;36.31
33191;BME280;19554;42.652;23.364;2023-07-31T09:20:31;94313.53;;;29.17;36.41
33191;BME280;19554;42.652;23.364;2023-07-31T09:23:13;94302.78;;;29.26;36.08
33191;BME280;19554;42.652;23.364;2023-07-31T09:25:40;94294.53;;;29.26;35.39
33191;BME280;19554;42.652;23.364;2023-07-31T09:28:09;94297.66;;;29.28;34.87
33191;BME280;19554;42.652;23.364;2023-07-31T09:30:51;94288.31;;;29.22;35.17
33191;BME280;19554;42.652;23.364;2023-07-31T09:33:17;94295.78;;;29.48;34.96
33191;BME280;19554;42.652;23.364;2023-07-31T09:35:43;94288.72;;;29.47;35.02
33191;BME280;19554;42.652;23.364;2023-07-31T09:38:11;94279.78;;;29.67;34.73
33191;BME280;19554;42.652;23.364;2023-07-31T09:40:38;94286.97;;;29.61;34.75
33191;BME280;19554;42.652;23.364;2023-07-31T09:43:06;94292.47;;;29.61;35.39
33191;BME280;19554;42.652;23.364;2023-07-31T09:45:40;94293.47;;;29.43;35.40
33191;BME280;19554;42.652;23.364;2023-07-31T09:48:12;94256.97;;;29.16;35.94
33191;BME280;19554;42.652;23.364;2023-07-31T09:50:42;94281.81;;;29.09;36.35
33191;BME280;19554;42.652;23.364;2023-07-31T09:53:08;94285.22;;;29.20;36.36
33191;BME280;19554;42.652;23.364;2023-07-31T09:55:35;94285.13;;;29.27;36.13
33191;BME280;19554;42.652;23.364;2023-07-31T09:58:09;94281.09;;;29.04;35.85
33191;BME280;19554;42.652;23.364;2023-07-31T10:00:35;94282.16;;;29.14;35.38
33191;BME280;19554;42.652;23.364;2023-07-31T10:03:05;94288.31;;;29.22;35.92
33191;BME280;19554;42.652;23.364;2023-07-31T10:05:43;94277.81;;;29.17;35.24
33191;BME280;19554;42.652;23.364;2023-07-31T10:08:13;94273.84;;;29.18;35.30
33191;BME280;19554;42.652;23.364;2023-07-31T10:10:42;94275.78;;;29.21;35.18
33191;BME280;19554;42.652;23.364;2023-07-31T10:13:08;94272.31;;;29.17;35.25
33191;BME280;19554;42.652;23.364;2023-07-31T10:15:34;94277.81;;;29.17;35.43
33191;BME280;19554;42.652;23.364;2023-07-31T10:18:00;94203.63;;;28.86;35.59
33191;BME280;19554;42.652;23.364;2023-07-31T10:20:26;94272.34;;;29.40;35.07
33191;BME280;19554;42.652;23.364;2023-07-31T10:22:54;94276.84;;;29.54;34.72
33191;BME280;19554;42.652;23.364;2023-07-31T10:25:21;94277.03;;;29.67;34.27
33191;BME280;19554;42.652;23.364;2023-07-31T10:27:47;94274.78;;;29.62;34.29
33191;BME280;19554;42.652;23.364;2023-07-31T10:30:16;94264.56;;;29.35;34.02
33191;BME280;19554;42.652;23.364;2023-07-31T10:32:43;94276.88;;;29.27;34.49
33191;BME280;19554;42.652;23.364;2023-07-31T10:35:11;94279.63;;;29.27;34.10
33191;BME280;19554;42.652;23.364;2023-07-31T10:37:41;94263.56;;;29.22;33.71
33191;BME280;19554;42.652;23.364;2023-07-31T10:42:37;94253.31;;;29.49;33.98
33191;BME280;19554;42.652;23.364;2023-07-31T10:45:06;94255.34;;;29.72;33.48
33191;BME280;19554;42.652;23.364;2023-07-31T10:47:45;94255.97;;;29.80;33.44
33191;BME280;19554;42.652;23.364;2023-07-31T10:50:21;94258.72;;;29.57;33.22
33191;BME280;19554;42.652;23.364;2023-07-31T10:52:53;94252.41;;;29.60;33.38
33191;BME280;19554;42.652;23.364;2023-07-31T10:55:25;94259.91;;;29.56;33.42
33191;BME280;19554;42.652;23.364;2023-07-31T10:57:53;94253.13;;;29.64;33.23
33191;BME280;19554;42.652;23.364;2023-07-31T11:00:21;94229.56;;;29.63;32.75
33191;BME280;19554;42.652;23.364;2023-07-31T11:02:57;94238.19;;;29.65;32.44
33191;BME280;19554;42.652;23.364;2023-07-31T11:08:15;94237.19;;;29.51;33.48
33191;BME280;19554;42.652;23.364;2023-07-31T11:10:42;94239.44;;;29.33;33.63
33191;BME280;19554;42.652;23.364;2023-07-31T11:13:09;94224.91;;;29.33;33.67
33191;BME280;19554;42.652;23.364;2023-07-31T11:15:35;94234.44;;;29.28;33.47
33191;BME280;19554;42.652;23.364;2023-07-31T11:18:01;94234.91;;;29.46;33.13
33191;BME280;19554;42.652;23.364;2023-07-31T11:20:36;94232.03;;;29.53;33.00
33191;BME280;19554;42.652;23.364;2023-07-31T11:23:11;94185.31;;;29.30;32.57
33191;BME280;19554;42.652;23.364;2023-07-31T11:25:39;94238.06;;;29.72;32.09
33191;BME280;19554;42.652;23.364;2023-07-31T11:28:13;94234.22;;;29.89;31.84
33191;BME280;19554;42.652;23.364;2023-07-31T11:30:39;94232.59;;;29.92;31.79
33191;BME280;19554;42.652;23.364;2023-07-31T11:33:10;94227.69;;;29.80;31.70
33191;BME280;19554;42.652;23.364;2023-07-31T11:35:44;94239.53;;;29.77;32.03
33191;BME280;19554;42.652;23.364;2023-07-31T11:38:11;94238.19;;;29.65;32.21
33191;BME280;19554;42.652;23.364;2023-07-31T11:40:43;94230.28;;;29.67;32.02
33191;BME280;19554;42.652;23.364;2023-07-31T11:43:09;94216.63;;;29.36;31.47
33191;BME280;19554;42.652;23.364;2023-07-31T11:45:37;94229.56;;;29.12;32.29
33191;BME280;19554;42.652;23.364;2023-07-31T11:48:03;94223.22;;;28.88;32.93
33191;BME280;19554;42.652;23.364;2023-07-31T11:50:33;94231.09;;;28.86;33.13
33191;BME280;19554;42.652;23.364;2023-07-31T11:53:00;94226.16;;;28.74;34.07
33191;BME280;19554;42.652;23.364;2023-07-31T11:55:28;94214.66;;;28.83;34.47
33191;BME280;19554;42.652;23.364;2023-07-31T11:57:57;94224.94;;;29.05;33.97
33191;BME280;19554;42.652;23.364;2023-07-31T12:00:23;94193.53;;;28.79;33.69
33191;BME280;19554;42.652;23.364;2023-07-31T12:02:50;94222.56;;;29.08;33.56
33191;BME280;19554;42.652;23.364;2023-07-31T12:05:16;94124.13;;;28.48;33.29
33191;BME280;19554;42.652;23.364;2023-07-31T12:07:50;94218.44;;;29.19;32.93
33191;BME280;19554;42.652;23.364;2023-07-31T12:13:00;94214.47;;;29.24;32.52
33191;BME280;19554;42.652;23.364;2023-07-31T12:15:40;94144.69;;;28.64;32.82
33191;BME280;19554;42.652;23.364;2023-07-31T12:18:16;94207.41;;;29.23;32.91
33191;BME280;19554;42.652;23.364;2023-07-31T12:20:45;94198.56;;;29.35;33.03
33191;BME280;19554;42.652;23.364;2023-07-31T12:23:19;94132.25;;;29.10;32.76
33191;BME280;19554;42.652;23.364;2023-07-31T12:26:00;94204.34;;;29.68;31.84
33191;BME280;19554;42.652;23.364;2023-07-31T12:28:26;94204.91;;;29.79;31.35
33191;BME280;19554;42.652;23.364;2023-07-31T12:30:56;94194.94;;;29.65;32.07
33191;BME280;19554;42.652;23.364;2023-07-31T12:33:24;94201.44;;;29.28;33.57
33191;BME280;19554;42.652;23.364;2023-07-31T12:35:49;94201.69;;;29.37;33.52
33191;BME280;19554;42.652;23.364;2023-07-31T12:38:15;94183.88;;;29.22;33.81
33191;BME280;19554;42.652;23.364;2023-07-31T12:40:41;94186.22;;;29.23;34.01
33191;BME280;19554;42.652;23.364;2023-07-31T12:43:07;94201.81;;;29.30;33.59
33191;BME280;19554;42.652;23.364;2023-07-31T12:45:34;94195.44;;;29.33;33.21
33191;BME280;19554;42.652;23.364;2023-07-31T12:48:00;94198.13;;;29.37;32.93
33191;BME280;19554;42.652;23.364;2023-07-31T12:50:26;94192.31;;;29.35;32.58
33191;BME280;19554;42.652;23.364;2023-07-31T12:52:53;94188.34;;;29.36;32.59
33191;BME280;19554;42.652;23.364;2023-07-31T12:55:19;94187.63;;;29.32;32.57
33191;BME280;19554;42.652;23.364;2023-07-31T12:57:44;94181.47;;;29.24;32.27
33191;BME280;19554;42.652;23.364;2023-07-31T13:00:10;94188.16;;;29.23;32.56
33191;BME280;19554;42.652;23.364;2023-07-31T13:02:36;94178.50;;;29.38;32.37